createdAt,value
2023-05-19T00:01:20.469Z,1.65
2023-05-19T00:03:56.040Z,1.85
2023-05-19T00:06:25.312Z,1.90
2023-05-19T00:09:04.266Z,2.25
2023-05-19T00:11:32.018Z,1.93
2023-05-19T00:14:00.357Z,2.33
2023-05-19T00:16:29.757Z,1.85
2023-05-19T00:19:00.758Z,1.95
2023-05-19T00:21:28.944Z,2.10
2023-05-19T00:23:56.267Z,2.10
2023-05-19T00:26:23.314Z,1.92
2023-05-19T00:28:50.840Z,1.67
2023-05-19T00:31:17.803Z,2.17
2023-05-19T00:33:44.721Z,2.63
2023-05-19T00:36:12.004Z,1.90
2023-05-19T00:38:38.959Z,2.20
2023-05-19T00:41:06.849Z,2.00
2023-05-19T00:43:37.170Z,1.67
2023-05-19T00:46:04.294Z,2.33
2023-05-19T00:48:31.153Z,2.27
2023-05-19T00:51:04.481Z,1.90
2023-05-19T00:53:35.632Z,2.10
2023-05-19T00:56:03.359Z,1.98
2023-05-19T00:58:32.819Z,2.20
2023-05-19T01:01:04.812Z,1.90
2023-05-19T01:03:35.732Z,1.92
2023-05-19T01:06:07.518Z,2.00
2023-05-19T01:08:36.624Z,1.75
2023-05-19T01:11:04.556Z,2.00
2023-05-19T01:13:31.987Z,1.87
2023-05-19T01:15:58.814Z,2.05
2023-05-19T01:18:46.373Z,2.13
2023-05-19T01:21:36.998Z,1.77
2023-05-19T01:24:25.603Z,2.15
2023-05-19T01:27:30.115Z,1.70
2023-05-19T01:30:14.326Z,2.30
2023-05-19T01:32:42.708Z,1.85
2023-05-19T01:35:10.445Z,1.98
2023-05-19T01:37:39.568Z,2.15
2023-05-19T01:40:10.222Z,2.03
2023-05-19T01:42:40.211Z,2.17
2023-05-19T01:45:10.577Z,2.08
2023-05-19T01:47:42.128Z,2.40
2023-05-19T01:50:09.697Z,2.40
2023-05-19T01:52:36.776Z,2.33
2023-05-19T01:55:03.763Z,2.20
2023-05-19T01:57:35.324Z,2.40
2023-05-19T02:00:08.546Z,3.05
2023-05-19T02:02:47.848Z,1.75
2023-05-19T02:05:31.436Z,1.90
2023-05-19T02:08:06.668Z,2.22
2023-05-19T02:10:38.672Z,1.95
2023-05-19T02:13:09.336Z,1.77
2023-05-19T02:15:42.384Z,2.10
2023-05-19T02:18:12.740Z,1.97
2023-05-19T02:20:40.092Z,1.95
2023-05-19T02:23:07.402Z,2.33
2023-05-19T02:25:34.265Z,2.17
2023-05-19T02:28:01.086Z,2.20
2023-05-19T02:30:28.007Z,1.80
2023-05-19T02:32:55.599Z,2.22
2023-05-19T02:35:22.525Z,2.30
2023-05-19T02:37:49.312Z,2.15
2023-05-19T02:40:16.213Z,2.50
2023-05-19T02:42:43.005Z,2.40
2023-05-19T02:45:10.196Z,2.05
2023-05-19T02:47:38.485Z,1.63
2023-05-19T02:50:06.465Z,2.15
2023-05-19T02:52:33.300Z,2.65
2023-05-19T02:55:00.594Z,2.30
2023-05-19T02:57:27.392Z,1.92
2023-05-19T02:59:54.139Z,3.13
2023-05-19T03:02:21.078Z,2.28
2023-05-19T03:04:48.008Z,2.28
2023-05-19T03:07:15.696Z,2.10
2023-05-19T03:09:42.543Z,1.90
2023-05-19T03:12:09.659Z,2.78
2023-05-19T03:14:39.259Z,2.72
2023-05-19T03:17:08.253Z,2.20
2023-05-19T03:19:35.277Z,2.30
2023-05-19T03:22:02.285Z,2.55
2023-05-19T03:24:29.155Z,2.20
2023-05-19T03:26:56.127Z,2.45
2023-05-19T03:29:22.936Z,2.30
2023-05-19T03:31:49.811Z,2.30
2023-05-19T03:34:16.685Z,2.30
2023-05-19T03:36:45.185Z,2.40
2023-05-19T03:39:12.281Z,2.40
2023-05-19T03:41:39.040Z,2.10
2023-05-19T03:44:06.005Z,2.43
2023-05-19T03:46:32.833Z,1.75
2023-05-19T03:48:59.630Z,2.50
2023-05-19T03:51:28.760Z,2.25
2023-05-19T03:53:56.062Z,2.35
2023-05-19T03:56:23.788Z,2.40
2023-05-19T03:58:50.642Z,2.22
2023-05-19T04:01:17.899Z,2.63
2023-05-19T04:03:44.778Z,2.67
2023-05-19T04:06:11.642Z,3.10
2023-05-19T04:08:39.506Z,2.50
2023-05-19T04:11:06.352Z,2.17
2023-05-19T04:13:34.042Z,2.13
2023-05-19T04:16:01.568Z,2.50
2023-05-19T04:18:29.047Z,2.28
2023-05-19T04:20:56.366Z,2.20
2023-05-19T04:23:23.408Z,2.30
2023-05-19T04:25:50.311Z,2.20
2023-05-19T04:28:18.148Z,2.42
2023-05-19T04:30:46.766Z,2.22
2023-05-19T04:33:13.979Z,2.27
2023-05-19T04:35:40.996Z,2.33
2023-05-19T04:38:07.863Z,1.98
2023-05-19T04:40:34.864Z,2.40
2023-05-19T04:43:02.345Z,2.38
2023-05-19T04:45:29.381Z,2.83
2023-05-19T04:47:58.336Z,2.22
2023-05-19T04:50:25.535Z,3.05
2023-05-19T04:52:52.379Z,2.95
2023-05-19T04:55:19.821Z,2.90
2023-05-19T04:57:47.095Z,2.67
2023-05-19T05:00:14.703Z,2.65
2023-05-19T05:02:43.065Z,2.70
2023-05-19T05:05:10.343Z,3.80
2023-05-19T05:07:37.192Z,2.60
2023-05-19T05:10:04.542Z,3.00
2023-05-19T05:12:32.564Z,3.83
2023-05-19T05:14:59.885Z,3.15
2023-05-19T05:17:28.396Z,3.58
2023-05-19T05:19:55.728Z,3.08
2023-05-19T05:22:22.931Z,2.63
2023-05-19T05:24:50.059Z,3.47
2023-05-19T05:27:16.895Z,3.35
2023-05-19T05:29:43.865Z,2.92
2023-05-19T05:32:10.911Z,3.20
2023-05-19T05:34:38.331Z,3.00
2023-05-19T05:37:05.308Z,3.25
2023-05-19T05:39:32.222Z,3.75
2023-05-19T05:41:59.036Z,3.30
2023-05-19T05:44:26.008Z,3.08
2023-05-19T05:46:53.167Z,3.57
2023-05-19T05:49:20.347Z,3.30
2023-05-19T05:52:01.510Z,3.65
2023-05-19T05:54:32.546Z,3.05
2023-05-19T05:56:59.698Z,3.83
2023-05-19T05:59:26.532Z,3.13
2023-05-19T06:01:53.403Z,2.90
2023-05-19T06:04:21.399Z,3.72
2023-05-19T06:06:48.317Z,3.40
2023-05-19T06:09:15.108Z,3.42
2023-05-19T06:11:41.923Z,3.60
2023-05-19T06:14:08.800Z,3.08
2023-05-19T06:16:35.881Z,3.00
2023-05-19T06:19:02.805Z,2.80
2023-05-19T06:21:29.781Z,3.05
2023-05-19T06:23:56.785Z,3.40
2023-05-19T06:26:23.641Z,2.75
2023-05-19T06:28:50.721Z,3.50
2023-05-19T06:31:17.676Z,3.40
2023-05-19T06:33:44.523Z,3.65
2023-05-19T06:36:12.172Z,2.83
2023-05-19T06:38:39.174Z,3.50
2023-05-19T06:41:07.035Z,3.55
2023-05-19T06:43:33.916Z,3.42
2023-05-19T06:46:00.752Z,3.65
2023-05-19T06:48:27.788Z,2.97
2023-05-19T06:50:54.792Z,3.88
2023-05-19T06:53:21.825Z,3.42
2023-05-19T06:55:59.574Z,2.90
2023-05-19T06:58:27.549Z,3.47
2023-05-19T07:00:54.599Z,3.37
2023-05-19T07:03:21.473Z,3.25
2023-05-19T07:05:48.555Z,3.17
2023-05-19T07:08:15.550Z,3.10
2023-05-19T07:10:42.474Z,2.65
2023-05-19T07:13:09.328Z,2.97
2023-05-19T07:15:36.397Z,2.90
2023-05-19T07:18:03.318Z,2.83
2023-05-19T07:20:30.485Z,2.45
2023-05-19T07:22:57.493Z,2.75
2023-05-19T07:25:24.517Z,2.60
2023-05-19T07:27:51.528Z,2.95
2023-05-19T07:30:18.421Z,2.50
2023-05-19T07:32:45.617Z,2.33
2023-05-19T07:35:12.573Z,2.08
2023-05-19T07:37:39.713Z,2.80
2023-05-19T07:40:08.140Z,2.10
2023-05-19T07:42:35.370Z,1.92
2023-05-19T07:45:03.614Z,2.50
2023-05-19T07:47:31.939Z,1.73
2023-05-19T07:49:59.050Z,1.70
2023-05-19T07:52:26.098Z,2.30
2023-05-19T07:54:53.568Z,2.45
2023-05-19T07:57:20.634Z,1.65
2023-05-19T07:59:47.629Z,1.77
2023-05-19T08:02:14.610Z,1.30
2023-05-19T08:04:41.727Z,1.45
2023-05-19T08:07:08.876Z,1.50
2023-05-19T08:09:36.007Z,1.70
2023-05-19T08:12:05.063Z,1.30
2023-05-19T08:14:33.509Z,1.40
2023-05-19T08:17:00.420Z,1.27
2023-05-19T08:19:27.363Z,1.05
2023-05-19T08:21:54.443Z,1.45
2023-05-19T08:24:21.289Z,0.95
2023-05-19T08:26:48.252Z,1.00
2023-05-19T08:29:15.150Z,1.10
2023-05-19T08:31:42.110Z,0.82
2023-05-19T08:34:09.541Z,0.90
2023-05-19T08:36:36.515Z,0.80
2023-05-19T08:39:03.673Z,0.60
2023-05-19T08:41:30.611Z,0.98
2023-05-19T08:43:57.606Z,1.00
2023-05-19T08:46:25.928Z,0.85
2023-05-19T08:49:06.853Z,0.68
2023-05-19T08:51:43.748Z,0.83
2023-05-19T08:54:18.304Z,0.65
2023-05-19T08:56:45.840Z,0.90
2023-05-19T08:59:15.315Z,0.90
2023-05-19T09:01:46.532Z,0.90
2023-05-19T09:04:14.387Z,0.97
2023-05-19T09:06:42.576Z,1.20
2023-05-19T09:09:09.926Z,1.00
2023-05-19T09:11:37.880Z,0.90
2023-05-19T09:14:05.416Z,0.80
2023-05-19T09:16:34.160Z,0.77
2023-05-19T09:19:01.491Z,0.82
2023-05-19T09:21:32.521Z,0.88
2023-05-19T09:24:08.431Z,0.88
2023-05-19T09:26:43.036Z,0.95
2023-05-19T09:29:17.317Z,1.00
2023-05-19T09:31:50.983Z,1.42
2023-05-19T09:34:18.923Z,1.40
2023-05-19T09:36:49.713Z,0.93
2023-05-19T09:39:17.550Z,1.10
2023-05-19T09:41:45.322Z,1.23
2023-05-19T09:44:21.455Z,1.20
2023-05-19T09:46:49.966Z,1.20
2023-05-19T09:49:21.969Z,0.80
2023-05-19T09:52:03.921Z,1.10
2023-05-19T09:54:32.685Z,1.10
2023-05-19T09:57:04.036Z,1.00
2023-05-19T09:59:33.679Z,1.10
2023-05-19T10:02:01.714Z,0.93
2023-05-19T10:04:30.362Z,0.90
2023-05-19T10:07:05.761Z,0.87
2023-05-19T10:09:34.257Z,0.82
2023-05-19T10:12:02.548Z,0.80
2023-05-19T10:14:30.143Z,1.10
2023-05-19T10:16:59.020Z,0.90
2023-05-19T10:19:27.724Z,1.00
2023-05-19T10:21:56.157Z,0.95
2023-05-19T10:24:23.289Z,1.17
2023-05-19T10:27:05.471Z,1.17
2023-05-19T10:29:36.680Z,1.15
2023-05-19T10:32:10.683Z,0.90
2023-05-19T10:35:09.499Z,1.15
2023-05-19T10:37:51.424Z,1.30
2023-05-19T10:40:39.149Z,1.17
2023-05-19T10:43:31.062Z,1.10
2023-05-19T10:45:58.229Z,1.00
2023-05-19T10:48:25.208Z,0.95
2023-05-19T10:50:56.689Z,1.35
2023-05-19T10:53:33.432Z,0.90
2023-05-19T10:56:06.953Z,1.08
2023-05-19T10:58:49.628Z,1.10
2023-05-19T11:01:18.400Z,1.10
2023-05-19T11:03:50.935Z,1.02
2023-05-19T11:06:27.010Z,1.00
2023-05-19T11:09:15.628Z,1.00
2023-05-19T11:11:50.382Z,0.73
2023-05-19T11:14:43.439Z,0.82
2023-05-19T11:17:15.514Z,1.05
2023-05-19T11:19:54.784Z,1.00
2023-05-19T11:22:26.647Z,0.73
2023-05-19T11:24:57.686Z,0.63
2023-05-19T11:27:31.903Z,0.80
2023-05-19T11:30:09.568Z,1.00
2023-05-19T11:32:39.606Z,0.80
2023-05-19T11:35:08.117Z,1.10
2023-05-19T11:37:35.980Z,1.10
2023-05-19T11:40:07.794Z,1.10
2023-05-19T11:42:37.191Z,0.95
2023-05-19T11:45:05.305Z,0.70
2023-05-19T11:47:46.037Z,0.90
2023-05-19T11:50:20.363Z,0.90
2023-05-19T11:52:48.142Z,0.75
2023-05-19T11:55:19.327Z,0.80
2023-05-19T11:58:04.551Z,0.77
2023-05-19T12:00:39.842Z,0.90
2023-05-19T12:03:08.387Z,0.80
2023-05-19T12:05:44.348Z,0.77
2023-05-19T12:08:12.632Z,0.60
2023-05-19T12:10:40.898Z,1.00
2023-05-19T12:13:09.937Z,0.73
2023-05-19T12:15:37.805Z,1.40
2023-05-19T12:18:04.787Z,0.68
2023-05-19T12:20:32.903Z,0.80
2023-05-19T12:23:01.227Z,0.70
2023-05-19T12:25:29.993Z,0.70
2023-05-19T12:28:03.174Z,0.90
2023-05-19T12:30:31.982Z,0.95
2023-05-19T12:32:59.834Z,0.80
2023-05-19T12:35:29.094Z,0.85
2023-05-19T12:37:56.379Z,0.60
2023-05-19T12:40:23.457Z,0.90
2023-05-19T12:42:53.512Z,1.00
2023-05-19T12:45:26.024Z,1.30
2023-05-19T12:47:53.124Z,2.03
2023-05-19T12:50:20.485Z,1.20
2023-05-19T12:52:51.443Z,1.00
2023-05-19T12:55:20.760Z,0.73
2023-05-19T12:57:54.957Z,0.70
2023-05-19T13:00:25.793Z,0.60
2023-05-19T13:03:05.690Z,0.90
2023-05-19T13:05:38.740Z,1.60
2023-05-19T13:08:08.736Z,1.10
2023-05-19T13:10:37.281Z,1.48
2023-05-19T13:13:05.418Z,1.10
2023-05-19T13:15:34.671Z,0.98
2023-05-19T13:18:03.838Z,1.03
2023-05-19T13:20:31.199Z,1.20
2023-05-19T13:22:58.217Z,1.25
2023-05-19T13:25:25.988Z,1.20
2023-05-19T13:27:54.622Z,1.30
2023-05-19T13:30:22.160Z,1.30
2023-05-19T13:32:49.007Z,1.10
2023-05-19T13:35:16.073Z,1.20
2023-05-19T13:37:43.290Z,0.95
2023-05-19T13:40:10.953Z,0.80
2023-05-19T13:42:38.260Z,0.90
2023-05-19T13:45:05.655Z,1.00
2023-05-19T13:47:32.656Z,0.73
2023-05-19T13:49:59.687Z,1.08
2023-05-19T13:52:28.354Z,1.30
2023-05-19T13:54:57.559Z,1.27
2023-05-19T13:57:25.659Z,0.98
2023-05-19T14:00:01.998Z,0.90
2023-05-19T14:02:30.466Z,1.33
2023-05-19T14:04:57.756Z,0.95
2023-05-19T14:07:25.712Z,1.27
2023-05-19T14:09:53.101Z,1.00
2023-05-19T14:12:23.201Z,0.95
2023-05-19T14:14:52.339Z,1.10
2023-05-19T14:17:20.755Z,1.05
2023-05-19T14:19:47.741Z,0.93
2023-05-19T14:22:14.816Z,0.85
2023-05-19T14:24:42.055Z,0.70
2023-05-19T14:27:08.892Z,0.80
2023-05-19T14:29:35.765Z,0.90
2023-05-19T14:32:03.962Z,0.80
2023-05-19T14:34:31.066Z,0.70
2023-05-19T14:36:58.119Z,1.00
2023-05-19T14:39:24.939Z,0.80
2023-05-19T14:41:53.126Z,1.98
2023-05-19T14:44:20.183Z,1.10
2023-05-19T14:46:47.170Z,0.90
2023-05-19T14:49:14.193Z,1.45
2023-05-19T14:51:41.196Z,0.70
2023-05-19T14:54:08.083Z,1.00
2023-05-19T14:56:35.106Z,1.60
2023-05-19T14:59:02.061Z,0.90
2023-05-19T15:01:29.121Z,0.85
2023-05-19T15:03:56.497Z,0.80
2023-05-19T15:06:24.014Z,1.33
2023-05-19T15:08:51.175Z,0.67
2023-05-19T15:11:18.139Z,0.98
2023-05-19T15:13:45.010Z,1.02
2023-05-19T15:18:41.903Z,1.13
2023-05-19T15:21:08.869Z,1.23
2023-05-19T15:23:35.858Z,1.50
2023-05-19T15:26:02.912Z,0.90
2023-05-19T15:28:29.966Z,0.80
2023-05-19T15:30:56.897Z,1.08
2023-05-19T15:33:23.799Z,1.10
2023-05-19T15:35:52.377Z,0.80
2023-05-19T15:38:19.895Z,1.08
2023-05-19T15:40:47.104Z,0.82
2023-05-19T15:43:14.186Z,0.80
2023-05-19T15:45:41.409Z,0.97
2023-05-19T15:48:08.706Z,0.95
2023-05-19T15:50:36.382Z,1.13
2023-05-19T15:53:03.740Z,1.13
2023-05-19T15:55:30.687Z,0.98
2023-05-19T15:57:57.679Z,1.00
2023-05-19T16:00:24.659Z,0.75
2023-05-19T16:02:51.709Z,1.05
2023-05-19T16:05:18.817Z,0.98
2023-05-19T16:07:45.716Z,1.10
2023-05-19T16:10:12.693Z,1.30
2023-05-19T16:12:39.573Z,1.02
2023-05-19T16:15:07.038Z,1.20
2023-05-19T16:17:34.926Z,0.90
2023-05-19T16:20:02.036Z,1.58
2023-05-19T16:22:30.474Z,1.10
2023-05-19T16:24:57.402Z,0.80
2023-05-19T16:27:24.272Z,1.02
2023-05-19T16:29:51.313Z,1.30
2023-05-19T16:32:18.181Z,1.40
2023-05-19T16:34:45.145Z,1.20
2023-05-19T16:37:11.992Z,1.13
2023-05-19T16:39:40.347Z,1.15
2023-05-19T16:42:07.508Z,1.00
2023-05-19T16:44:34.365Z,1.40
2023-05-19T16:47:01.243Z,0.83
2023-05-19T16:49:28.040Z,1.10
2023-05-19T16:51:55.987Z,1.02
2023-05-19T16:54:23.564Z,1.10
2023-05-19T16:56:51.380Z,1.15
2023-05-19T16:59:18.533Z,0.73
2023-05-19T17:01:45.593Z,1.20
2023-05-19T17:04:13.365Z,1.13
2023-05-19T17:06:40.261Z,1.30
2023-05-19T17:09:07.183Z,1.10
2023-05-19T17:11:34.237Z,1.13
2023-05-19T17:14:02.185Z,1.30
2023-05-19T17:16:28.999Z,1.08
2023-05-19T17:18:56.220Z,1.27
2023-05-19T17:21:23.139Z,1.38
2023-05-19T17:23:50.265Z,1.20
2023-05-19T17:26:17.303Z,1.05
2023-05-19T17:28:44.637Z,0.90
2023-05-19T17:31:12.737Z,1.20
2023-05-19T17:33:40.033Z,1.10
2023-05-19T17:36:08.323Z,1.00
2023-05-19T17:38:35.769Z,1.00
2023-05-19T17:41:04.792Z,1.50
2023-05-19T17:43:31.982Z,1.42
2023-05-19T17:46:00.915Z,1.25
2023-05-19T17:48:28.134Z,0.90
2023-05-19T17:50:55.114Z,1.00
2023-05-19T17:53:22.127Z,1.20
2023-05-19T17:55:53.887Z,1.20
2023-05-19T17:58:21.357Z,1.25
2023-05-19T18:00:48.471Z,1.00
2023-05-19T18:03:15.833Z,0.98
2023-05-19T18:05:44.818Z,1.20
2023-05-19T18:08:13.332Z,0.90
2023-05-19T18:10:42.088Z,0.82
2023-05-19T18:13:11.142Z,1.20
2023-05-19T18:15:38.015Z,1.20
2023-05-19T18:18:07.647Z,0.80
2023-05-19T18:20:35.255Z,0.80
2023-05-19T18:23:02.893Z,1.27
2023-05-19T18:25:29.706Z,0.70
2023-05-19T18:27:56.816Z,1.20
2023-05-19T18:30:23.912Z,0.90
2023-05-19T18:32:50.746Z,1.10
2023-05-19T18:35:17.817Z,1.33
2023-05-19T18:37:44.651Z,1.13
2023-05-19T18:40:11.506Z,1.10
2023-05-19T18:42:38.455Z,1.05
2023-05-19T18:45:06.469Z,1.20
2023-05-19T18:47:33.446Z,1.42
2023-05-19T18:50:00.345Z,1.23
2023-05-19T18:52:28.790Z,1.25
2023-05-19T18:54:55.773Z,1.13
2023-05-19T18:57:22.705Z,0.88
2023-05-19T18:59:49.558Z,1.25
2023-05-19T19:02:16.544Z,0.90
2023-05-19T19:04:43.760Z,1.02
2023-05-19T19:07:10.627Z,1.10
2023-05-19T19:09:37.584Z,0.88
2023-05-19T19:12:04.522Z,0.95
2023-05-19T19:14:31.896Z,1.00
2023-05-19T19:16:58.803Z,1.20
2023-05-19T19:19:28.515Z,1.20
2023-05-19T19:21:55.438Z,1.83
2023-05-19T19:24:22.304Z,1.30
2023-05-19T19:26:49.135Z,1.13
2023-05-19T19:29:18.348Z,1.38
2023-05-19T19:31:45.508Z,1.20
2023-05-19T19:34:13.737Z,1.35
2023-05-19T19:36:40.590Z,1.48
2023-05-19T19:39:07.663Z,1.47
2023-05-19T19:41:34.657Z,1.50
2023-05-19T19:44:01.504Z,1.20
2023-05-19T19:46:28.478Z,0.93
2023-05-19T19:48:58.381Z,1.45
2023-05-19T19:51:25.272Z,1.10
2023-05-19T19:53:52.150Z,1.10
2023-05-19T19:56:19.158Z,1.45
2023-05-19T19:58:46.303Z,1.40
2023-05-19T20:01:13.170Z,1.40
2023-05-19T20:03:40.071Z,1.10
2023-05-19T20:06:07.898Z,1.50
2023-05-19T20:08:34.840Z,1.00
2023-05-19T20:11:01.655Z,1.40
2023-05-19T20:13:28.817Z,1.35
2023-05-19T20:15:57.992Z,1.43
2023-05-19T20:18:25.971Z,1.25
2023-05-19T20:20:52.901Z,1.77
2023-05-19T20:23:19.844Z,1.27
2023-05-19T20:26:02.472Z,1.60
2023-05-19T20:28:35.995Z,1.53
2023-05-19T20:31:02.943Z,1.27
2023-05-19T20:33:30.006Z,1.80
2023-05-19T20:35:56.857Z,2.10
2023-05-19T20:38:23.846Z,2.08
2023-05-19T20:40:51.193Z,2.00
2023-05-19T20:43:18.208Z,2.45
2023-05-19T20:45:45.759Z,2.30
2023-05-19T20:48:12.722Z,1.50
2023-05-19T20:50:39.964Z,2.40
2023-05-19T20:53:07.614Z,2.20
2023-05-19T20:55:36.341Z,2.13
2023-05-19T20:58:03.346Z,2.70
2023-05-19T21:00:30.844Z,2.33
2023-05-19T21:02:58.044Z,2.15
2023-05-19T21:05:25.158Z,2.50
2023-05-19T21:07:52.020Z,2.53
2023-05-19T21:10:19.012Z,2.45
2023-05-19T21:12:46.909Z,2.70
2023-05-19T21:15:13.945Z,3.00
2023-05-19T21:17:40.917Z,2.23
2023-05-19T21:20:08.665Z,2.70
2023-05-19T21:22:36.152Z,2.50
2023-05-19T21:25:03.690Z,2.60
2023-05-19T21:27:33.019Z,2.20
2023-05-19T21:30:00.304Z,2.30
2023-05-19T21:32:27.934Z,2.13
2023-05-19T21:34:54.824Z,2.60
2023-05-19T21:37:21.851Z,2.38
2023-05-19T21:39:49.101Z,3.00
2023-05-19T21:42:15.862Z,2.10
2023-05-19T21:44:42.732Z,2.45
2023-05-19T21:47:09.582Z,2.30
2023-05-19T21:49:36.442Z,2.30
2023-05-19T21:52:03.342Z,2.30
2023-05-19T21:54:30.310Z,2.27
2023-05-19T21:56:57.070Z,2.30
2023-05-19T21:59:24.988Z,2.15
2023-05-19T22:01:52.492Z,2.63
2023-05-19T22:04:21.182Z,2.20
2023-05-19T22:06:48.036Z,2.80
2023-05-19T22:09:14.844Z,2.50
2023-05-19T22:11:41.920Z,2.50
2023-05-19T22:14:08.795Z,2.08
2023-05-19T22:16:35.750Z,2.20
2023-05-19T22:19:02.753Z,2.13
2023-05-19T22:21:29.729Z,2.15
2023-05-19T22:23:56.608Z,1.90
2023-05-19T22:26:23.495Z,2.00
2023-05-19T22:28:50.574Z,2.00
2023-05-19T22:31:17.842Z,2.10
2023-05-19T22:33:45.047Z,1.70
2023-05-19T22:36:11.887Z,1.98
2023-05-19T22:38:38.702Z,2.22
2023-05-19T22:41:05.675Z,2.40
2023-05-19T22:43:32.552Z,2.30
2023-05-19T22:45:59.469Z,1.75
2023-05-19T22:48:26.408Z,2.47
2023-05-19T22:50:53.306Z,1.70
2023-05-19T22:53:20.139Z,2.40
2023-05-19T22:55:47.139Z,1.93
2023-05-19T22:58:13.957Z,2.15
2023-05-19T23:00:40.766Z,2.38
2023-05-19T23:03:07.694Z,2.75
2023-05-19T23:05:35.073Z,1.70
2023-05-19T23:08:02.299Z,2.30
2023-05-19T23:10:29.216Z,2.10
2023-05-19T23:12:56.082Z,2.53
2023-05-19T23:15:22.889Z,2.10
2023-05-19T23:17:49.817Z,2.13
2023-05-19T23:20:16.799Z,2.07
2023-05-19T23:22:43.618Z,2.00
2023-05-19T23:25:10.547Z,2.03
2023-05-19T23:27:37.429Z,2.13
2023-05-19T23:30:04.747Z,1.95
2023-05-19T23:32:31.543Z,2.10
2023-05-19T23:34:58.406Z,2.00
2023-05-19T23:37:25.238Z,2.22
2023-05-19T23:39:52.022Z,2.40
2023-05-19T23:42:18.809Z,2.33
2023-05-19T23:44:45.779Z,2.67
2023-05-19T23:47:12.575Z,2.13
2023-05-19T23:49:39.411Z,2.15
2023-05-19T23:52:06.622Z,2.20
2023-05-19T23:54:33.429Z,2.67
2023-05-19T23:57:02.334Z,2.90
2023-05-19T23:59:29.126Z,2.40
